Аэропорт: Сары-Арка. Караганда

ICAO: UAKK

METAR:
2019/01/21 23:00
UAKK 212300Z 26004MPS 9000 -SN OVC011 M06/M07 Q1025 R23/454045 NOSIG RMK QFE722/0963
METAR:
2019/01/21 18:18
TAF UAKK 211700Z 2118/2218 26005MPS 2000 -SN BR BKN004 OVC010 TXM04/2208Z TNM09/2201Z 
      TEMPO 2118/2205 VRB02MPS 0300 FZFG VV001 
     FM220600 VRB02MPS 9999 SCT009 BKN015 
      TEMPO 2206/2215 4000 -SN SCT005 
      TEMPO 2215/2218 3000 BR SCT004